createdAt,value
2022-09-04T00:00:10.736Z,16.93
2022-09-04T00:06:14.616Z,17.11
2022-09-04T00:09:10.996Z,17.12
2022-09-04T00:14:55.414Z,17.07
2022-09-04T00:20:39.857Z,16.86
2022-09-04T00:26:12.929Z,16.63
2022-09-04T00:37:53.652Z,16.66
2022-09-04T00:43:59.742Z,16.68
2022-09-04T00:50:19.589Z,16.54
2022-09-04T00:53:32.729Z,16.46
2022-09-04T00:56:47.342Z,16.46
2022-09-04T00:59:46.897Z,16.45
2022-09-04T01:06:00.329Z,16.82
2022-09-04T01:12:14.788Z,16.55
2022-09-04T01:15:09.061Z,16.61
2022-09-04T01:21:22.676Z,16.46
2022-09-04T01:27:12.846Z,16.46
2022-09-04T01:35:48.183Z,16.39
2022-09-04T01:41:38.450Z,16.17
2022-09-04T01:47:14.107Z,16.22
2022-09-04T01:52:49.444Z,16.18
2022-09-04T01:58:27.538Z,16.25
2022-09-04T02:04:12.579Z,16.21
2022-09-04T02:09:54.185Z,16.19
2022-09-04T02:15:36.075Z,16.18
2022-09-04T02:21:13.844Z,16.31
2022-09-04T02:26:56.352Z,16.34
2022-09-04T02:32:38.141Z,16.13
2022-09-04T02:38:25.366Z,16.02
2022-09-04T02:44:14.033Z,15.97
2022-09-04T02:50:03.334Z,16.14
2022-09-04T02:55:52.760Z,16.26
2022-09-04T02:58:48.449Z,16.15
2022-09-04T03:07:24.426Z,16.09
2022-09-04T03:13:02.668Z,16.06
2022-09-04T03:18:45.374Z,16.14
2022-09-04T03:27:06.496Z,16.54
2022-09-04T03:32:49.754Z,16.53
2022-09-04T03:41:18.010Z,16.24
2022-09-04T03:47:05.072Z,16.17
2022-09-04T03:50:00.616Z,16.10
2022-09-04T03:55:46.456Z,16.17
2022-09-04T04:01:26.802Z,16.02
2022-09-04T04:07:35.610Z,15.96
2022-09-04T04:10:35.302Z,15.90
2022-09-04T04:16:39.777Z,16.00
2022-09-04T04:19:47.385Z,15.94
2022-09-04T04:25:54.695Z,15.99
2022-09-04T04:28:55.497Z,15.94
2022-09-04T04:34:49.341Z,15.95
2022-09-04T04:37:44.268Z,15.88
2022-09-04T04:43:18.197Z,15.94
2022-09-04T04:52:41.132Z,15.87
2022-09-04T04:58:44.528Z,15.93
2022-09-04T05:07:25.018Z,15.87
2022-09-04T05:13:06.625Z,15.74
2022-09-04T05:18:39.148Z,15.97
2022-09-04T05:24:21.165Z,16.14
2022-09-04T05:32:46.871Z,16.49
2022-09-04T05:38:21.655Z,16.80
2022-09-04T05:44:16.207Z,17.03
2022-09-04T05:50:08.649Z,17.28
2022-09-04T05:53:32.415Z,17.41
2022-09-04T05:59:23.851Z,17.64
2022-09-04T06:05:32.699Z,17.65
2022-09-04T06:11:59.803Z,17.57
2022-09-04T06:15:14.249Z,17.61
2022-09-04T06:21:17.349Z,18.09
2022-09-04T06:27:32.182Z,18.58
2022-09-04T06:30:22.064Z,18.63
2022-09-04T06:36:24.233Z,18.70
2022-09-04T06:42:21.489Z,18.37
2022-09-04T06:45:18.195Z,18.28
2022-09-04T06:51:18.485Z,18.05
2022-09-04T06:57:13.031Z,18.14
2022-09-04T07:06:20.591Z,18.43
2022-09-04T07:09:13.282Z,18.45
2022-09-04T07:15:41.836Z,19.16
2022-09-04T07:21:31.103Z,19.71
2022-09-04T07:24:47.849Z,20.03
2022-09-04T07:30:35.004Z,20.83
2022-09-04T07:36:14.598Z,21.28
2022-09-04T07:41:52.532Z,22.11
2022-09-04T07:47:36.299Z,22.44
2022-09-04T07:53:15.138Z,22.76
2022-09-04T07:59:02.740Z,22.83
2022-09-04T08:04:52.355Z,22.62
2022-09-04T08:08:17.775Z,22.41
2022-09-04T08:18:03.334Z,22.54
2022-09-04T08:24:02.146Z,22.71
2022-09-04T08:26:59.620Z,22.37
2022-09-04T08:33:23.151Z,22.52
2022-09-04T08:39:07.416Z,22.26
2022-09-04T08:42:41.623Z,22.32
2022-09-04T08:45:48.759Z,22.73
2022-09-04T08:52:09.779Z,22.67
2022-09-04T08:59:12.523Z,22.85
2022-09-04T09:02:47.334Z,22.62
2022-09-04T09:06:00.335Z,22.59
2022-09-04T09:09:23.068Z,22.55
2022-09-04T09:16:04.786Z,22.61
2022-09-04T09:19:06.038Z,22.51
2022-09-04T09:25:29.953Z,23.25
2022-09-04T09:28:32.928Z,23.11
2022-09-04T09:32:13.478Z,23.04
2022-09-04T09:35:37.909Z,23.09
2022-09-04T09:42:18.830Z,23.35
2022-09-04T09:48:32.826Z,23.74
2022-09-04T09:52:00.868Z,23.70
2022-09-04T09:58:22.408Z,23.70
2022-09-04T10:01:33.282Z,23.73
2022-09-04T10:04:50.743Z,23.80
2022-09-04T10:08:12.910Z,23.80
2022-09-04T10:11:24.216Z,24.22
2022-09-04T10:17:49.963Z,24.37
2022-09-04T10:21:22.741Z,24.71
2022-09-04T10:24:53.572Z,24.65
2022-09-04T10:28:16.862Z,25.00
2022-09-04T10:38:01.415Z,25.80
2022-09-04T10:43:51.316Z,26.05
2022-09-04T10:49:41.064Z,26.66
2022-09-04T10:56:23.877Z,26.72
2022-09-04T11:03:06.450Z,26.95
2022-09-04T11:06:16.266Z,27.03
2022-09-04T11:12:26.241Z,27.33
2022-09-04T11:18:59.207Z,27.48
2022-09-04T11:22:36.503Z,27.32
2022-09-04T11:26:21.057Z,27.46
2022-09-04T11:32:26.365Z,27.26
2022-09-04T11:39:09.007Z,27.28
2022-09-04T11:45:32.186Z,26.85
2022-09-04T11:48:42.174Z,26.88
2022-09-04T11:55:13.306Z,26.46
2022-09-04T12:00:57.323Z,26.33
2022-09-04T12:06:55.251Z,26.76
2022-09-04T12:16:09.966Z,26.91
2022-09-04T12:22:52.209Z,27.20
2022-09-04T12:26:17.814Z,27.11
2022-09-04T12:29:55.675Z,26.59
2022-09-04T12:33:17.306Z,26.53
2022-09-04T12:36:38.167Z,26.53
2022-09-04T12:40:02.905Z,26.62
2022-09-04T12:45:49.433Z,26.87
2022-09-04T12:51:25.559Z,27.42
2022-09-04T12:57:15.943Z,27.65
2022-09-04T13:02:59.665Z,27.32
2022-09-04T13:08:47.210Z,27.57
2022-09-04T13:11:45.525Z,27.56
2022-09-04T13:17:49.053Z,28.16
2022-09-04T13:23:35.535Z,27.97
2022-09-04T13:29:22.174Z,27.97
2022-09-04T13:32:50.941Z,27.98
2022-09-04T13:39:00.523Z,27.81
2022-09-04T13:42:25.711Z,27.84
2022-09-04T13:47:59.163Z,27.71
2022-09-04T13:50:54.341Z,27.73
2022-09-04T13:59:28.824Z,27.85
2022-09-04T14:07:53.539Z,28.11
2022-09-04T14:11:17.416Z,27.97
2022-09-04T14:17:07.723Z,28.19
2022-09-04T14:22:49.252Z,27.85
2022-09-04T14:28:30.343Z,27.78
2022-09-04T14:34:14.976Z,27.50
2022-09-04T14:39:58.076Z,27.35
2022-09-04T14:42:50.700Z,27.47
2022-09-04T14:48:44.686Z,27.33
2022-09-04T14:51:36.327Z,27.41
2022-09-04T15:00:13.590Z,27.69
2022-09-04T15:08:41.564Z,27.98
2022-09-04T15:14:25.326Z,28.11
2022-09-04T15:20:05.091Z,28.06
2022-09-04T15:25:59.471Z,27.95
2022-09-04T15:28:43.722Z,27.78
2022-09-04T15:34:26.497Z,27.99
2022-09-04T15:37:17.897Z,28.02
2022-09-04T15:43:01.456Z,28.14
2022-09-04T15:48:50.084Z,27.92
2022-09-04T15:51:47.685Z,27.65
2022-09-04T15:54:53.655Z,27.46
2022-09-04T16:00:38.017Z,27.00
2022-09-04T16:06:13.891Z,26.79
2022-09-04T16:11:57.884Z,26.91
2022-09-04T16:15:10.817Z,26.91
2022-09-04T16:20:50.827Z,26.85
2022-09-04T16:26:34.185Z,26.77
2022-09-04T16:37:37.424Z,26.46
2022-09-04T16:44:46.407Z,26.04
2022-09-04T16:47:40.656Z,25.94
2022-09-04T16:50:31.815Z,25.90
2022-09-04T16:56:20.672Z,25.80
2022-09-04T17:02:02.744Z,25.57
2022-09-04T17:07:49.293Z,25.54
2022-09-04T17:13:28.001Z,25.66
2022-09-04T17:19:39.301Z,25.41
2022-09-04T17:27:03.093Z,25.36
2022-09-04T17:29:16.667Z,25.29
2022-09-04T17:31:45.518Z,24.96
2022-09-04T17:40:51.615Z,24.63
2022-09-04T17:43:27.646Z,24.52
2022-09-04T17:49:16.898Z,24.27
2022-09-04T17:52:09.684Z,24.17
2022-09-04T17:57:57.077Z,24.07
2022-09-04T18:03:39.692Z,23.89
2022-09-04T18:09:26.460Z,23.68
2022-09-04T18:15:33.894Z,23.56
2022-09-04T18:18:08.357Z,23.68
2022-09-04T18:20:58.703Z,23.47
2022-09-04T18:26:40.425Z,23.21
2022-09-04T18:32:51.742Z,23.07
2022-09-04T18:37:21.335Z,22.84
2022-09-04T18:48:16.007Z,23.01
2022-09-04T18:53:17.686Z,23.04
2022-09-04T18:59:27.183Z,22.84
2022-09-04T19:05:08.124Z,22.72
2022-09-04T19:11:11.242Z,22.48
2022-09-04T19:17:10.322Z,22.38
2022-09-04T19:22:54.198Z,22.26
2022-09-04T19:28:56.151Z,22.19
2022-09-04T19:31:51.256Z,22.17
2022-09-04T19:40:30.166Z,21.99
2022-09-04T19:53:17.450Z,21.82
2022-09-04T19:58:06.144Z,21.55
2022-09-04T20:03:50.340Z,21.46
2022-09-04T20:06:44.487Z,21.39
2022-09-04T20:09:37.700Z,21.35
2022-09-04T20:12:28.888Z,21.30
2022-09-04T20:15:21.820Z,21.26
2022-09-04T20:21:02.185Z,21.15
2022-09-04T20:26:41.571Z,21.11
2022-09-04T20:32:27.743Z,20.93
2022-09-04T20:38:12.377Z,20.86
2022-09-04T20:44:11.629Z,20.82
2022-09-04T20:50:40.194Z,20.81
2022-09-04T20:53:12.336Z,20.81
2022-09-04T21:03:14.259Z,20.75
2022-09-04T21:03:18.063Z,20.74
2022-09-04T21:05:01.792Z,20.57
2022-09-04T21:10:45.874Z,20.60
2022-09-04T21:25:41.700Z,20.45
2022-09-04T21:31:52.925Z,20.45
2022-09-04T21:38:01.904Z,20.24
2022-09-04T21:47:28.901Z,20.36
2022-09-04T21:53:25.034Z,20.25
2022-09-04T22:02:55.733Z,19.95
2022-09-04T22:11:56.873Z,20.23
2022-09-04T22:20:23.105Z,20.01
2022-09-04T22:23:56.529Z,19.83
2022-09-04T22:27:17.211Z,19.97
2022-09-04T22:34:14.199Z,19.94
2022-09-04T22:37:01.722Z,19.80
2022-09-04T22:42:52.393Z,19.72
2022-09-04T22:49:42.623Z,19.83
2022-09-04T22:56:17.824Z,19.80
2022-09-04T22:58:55.574Z,19.75
2022-09-04T23:02:13.389Z,19.80
2022-09-04T23:13:36.283Z,19.90
2022-09-04T23:26:33.254Z,19.81
2022-09-04T23:26:46.043Z,19.87
2022-09-04T23:30:25.773Z,19.72
2022-09-04T23:37:09.689Z,19.39
2022-09-04T23:40:39.074Z,19.34
2022-09-04T23:47:47.967Z,18.97
2022-09-04T23:53:37.799Z,19.19
2022-09-04T23:59:36.682Z,19.17
